Time;durP1;ratioP1;P1;durP2;ratioP2;P2;SDS_P1;SDS_P2;PMS_P1;PMS_P2;Temp;Humidity;BMP_temperature;BMP_pressure;BME280_temperature;BME280_humidity;BME280_pressure;Samples;Min_cycle;Max_cycle;Signal;HPM_P1;HPM_P2
2024/01/08 00:02:06;;;;;;;;;;;;;;;0.70;65.83;98863.16;4344520;33;34449;-84
2024/01/08 00:04:36;;;;;;;;;;;;;;;0.78;65.36;98864.13;4333382;33;33032;-83
2024/01/08 00:07:06;;;;;;;;;;;;;;;0.38;65.65;98866.97;4331875;33;34763;-83
2024/01/08 00:09:35;;;;;;;;;;;;;;;0.77;65.35;98873.44;4332158;33;34068;-83
2024/01/08 00:12:06;;;;;;;;;;;;;;;0.82;64.46;98874.41;4332526;33;34684;-84
2024/01/08 00:14:35;;;;;;;;;;;;;;;0.69;64.72;98877.59;4328352;33;33360;-83
2024/01/08 00:17:04;;;;;;;;;;;;;;;0.48;65.62;98874.75;4326016;33;33815;-83
2024/01/08 00:19:33;;;;;;;;;;;;;;;0.60;65.15;98882.59;4342835;33;34618;-83
2024/01/08 00:22:01;;;;;;;;;;;;;;;0.82;65.03;98876.94;4342803;33;34855;-83
2024/01/08 00:24:31;;;;;;;;;;;;;;;0.93;64.22;98881.31;4341252;33;33290;-83
2024/01/08 00:27:01;;;;;;;;;;;;;;;0.55;65.47;98895.28;4332485;33;33985;-83
2024/01/08 00:29:29;;;;;;;;;;;;;;;0.74;64.93;98890.44;4340244;33;34457;-83
2024/01/08 00:32:07;;;;;;;;;;;;;;;0.50;65.91;98896.06;4328967;33;34212;-83
2024/01/08 00:34:42;;;;;;;;;;;;;;;0.56;66.08;98891.06;4334671;33;33786;-83
2024/01/08 00:37:10;;;;;;;;;;;;;;;0.55;65.72;98904.63;4341280;33;32885;-83
2024/01/08 00:39:47;;;;;;;;;;;;;;;0.40;66.38;98910.37;4327616;33;32779;-82
2024/01/08 00:42:16;;;;;;;;;;;;;;;0.26;67.20;98916.97;4331860;33;35165;-83
2024/01/08 00:44:48;;;;;;;;;;;;;;;0.28;67.64;98916.16;4332216;33;32947;-83
2024/01/08 00:47:19;;;;;;;;;;;;;;;0.40;66.83;98911.22;4329579;33;33495;-83
2024/01/08 00:49:47;;;;;;;;;;;;;;;0.41;67.76;98925.72;4327687;33;33710;-83
2024/01/08 00:52:18;;;;;;;;;;;;;;;0.44;68.25;98934.25;4331636;33;33984;-82
2024/01/08 00:54:49;;;;;;;;;;;;;;;0.70;66.80;98927.84;4328794;33;33966;-83
2024/01/08 00:57:24;;;;;;;;;;;;;;;0.14;67.97;98951.63;4333799;33;34194;-83
2024/01/08 00:59:52;;;;;;;;;;;;;;;0.08;69.64;98940.50;4341465;33;33698;-82
2024/01/08 01:02:26;;;;;;;;;;;;;;;0.27;68.88;98931.44;4338643;33;34811;-83
2024/01/08 01:04:54;;;;;;;;;;;;;;;0.12;69.53;98939.69;4331109;33;34084;-83
2024/01/08 01:07:24;;;;;;;;;;;;;;;0.12;69.97;98939.69;4326201;33;33870;-83
2024/01/08 01:09:55;;;;;;;;;;;;;;;0.28;69.31;98948.47;4326115;33;34135;-82
2024/01/08 01:12:24;;;;;;;;;;;;;;;0.34;69.16;98940.87;4331331;33;35516;-83
2024/01/08 01:14:55;;;;;;;;;;;;;;;0.35;68.53;98946.03;4342552;33;35477;-83
2024/01/08 01:17:24;;;;;;;;;;;;;;;0.50;68.73;98952.19;4343872;33;33904;-83
2024/01/08 01:19:59;;;;;;;;;;;;;;;0.41;68.28;98952.91;4342111;33;35523;-83
2024/01/08 01:22:27;;;;;;;;;;;;;;;0.28;68.26;98961.22;4328430;33;34566;-84
2024/01/08 01:25:00;;;;;;;;;;;;;;;0.35;68.06;98953.69;4326130;33;33025;-83
2024/01/08 01:27:32;;;;;;;;;;;;;;;0.34;67.71;98956.19;4331331;33;34804;-83
2024/01/08 01:30:03;;;;;;;;;;;;;;;0.48;67.85;98961.53;4326196;33;34136;-82
2024/01/08 01:32:32;;;;;;;;;;;;;;;0.17;68.19;98972.09;4336564;33;34070;-83
2024/01/08 01:35:01;;;;;;;;;;;;;;;0.16;68.04;98961.88;4340937;33;34061;-83
2024/01/08 01:37:30;;;;;;;;;;;;;;;0.21;67.82;98952.59;4341071;33;34335;-83
2024/01/08 01:40:07;;;;;;;;;;;;;;;0.29;67.22;98951.06;4346279;33;34343;-83
2024/01/08 01:42:36;;;;;;;;;;;;;;;0.09;67.64;98958.34;4342853;33;34112;-82
2024/01/08 01:45:04;;;;;;;;;;;;;;;0.13;67.57;98941.44;4340768;33;34210;-83
2024/01/08 01:47:39;;;;;;;;;;;;;;;-0.09;67.78;98946.16;4340197;33;33933;-83
2024/01/08 01:50:08;;;;;;;;;;;;;;;-0.25;68.73;98939.91;4344962;33;34407;-82
2024/01/08 01:52:40;;;;;;;;;;;;;;;-0.19;68.40;98945.94;4342412;33;34482;-82
2024/01/08 01:55:10;;;;;;;;;;;;;;;-0.38;69.17;98945.62;4340462;33;34314;-82
2024/01/08 01:57:42;;;;;;;;;;;;;;;-0.23;69.63;98942.50;4340199;33;33811;-83
2024/01/08 02:00:13;;;;;;;;;;;;;;;-0.24;70.30;98951.00;4341350;33;34026;-83
2024/01/08 02:02:42;;;;;;;;;;;;;;;-0.43;71.37;98949.78;4346052;33;34199;-83
2024/01/08 02:05:12;;;;;;;;;;;;;;;-0.49;72.14;98958.16;4340931;33;33322;-83
2024/01/08 02:07:42;;;;;;;;;;;;;;;-0.45;73.02;98957.41;4340468;33;34155;-83
2024/01/08 02:10:12;;;;;;;;;;;;;;;-0.12;72.37;98966.50;4342941;33;34755;-83
2024/01/08 02:12:46;;;;;;;;;;;;;;;-0.19;72.05;98966.34;4345757;33;34901;-83
2024/01/08 02:15:14;;;;;;;;;;;;;;;-0.37;72.53;98974.53;4344793;33;33159;-82
2024/01/08 02:17:46;;;;;;;;;;;;;;;-0.06;71.80;98981.91;4339810;33;33651;-83
2024/01/08 02:20:15;;;;;;;;;;;;;;;0.21;70.78;98975.56;4341373;33;33919;-82
2024/01/08 02:22:49;;;;;;;;;;;;;;;0.31;69.77;98974.88;4341180;33;35115;-83
2024/01/08 02:25:19;;;;;;;;;;;;;;;0.19;69.55;98977.22;4331324;33;34144;-83
2024/01/08 02:27:48;;;;;;;;;;;;;;;0.04;70.58;98971.87;4335120;32;34214;-83
2024/01/08 02:30:17;;;;;;;;;;;;;;;-0.09;71.15;98971.66;4335077;33;33193;-83
2024/01/08 02:33:04;;;;;;;;;;;;;;;-0.24;69.80;98972.25;4332511;32;34714;-83
2024/01/08 02:35:33;;;;;;;;;;;;;;;-0.14;69.79;98969.88;4325261;33;33088;-83
2024/01/08 02:38:02;;;;;;;;;;;;;;;-0.07;69.06;98972.53;4341676;33;33673;-82
2024/01/08 02:40:32;;;;;;;;;;;;;;;-0.26;69.35;98973.91;4336835;32;34667;-83
2024/01/08 02:43:04;;;;;;;;;;;;;;;-0.02;68.14;98978.59;4327695;33;34208;-83
2024/01/08 02:45:35;;;;;;;;;;;;;;;0.34;66.50;98968.94;4332561;33;33444;-82
2024/01/08 02:48:04;;;;;;;;;;;;;;;0.20;66.51;98981.50;4339008;33;34175;-83
2024/01/08 02:50:35;;;;;;;;;;;;;;;-0.03;67.10;98981.09;4338239;33;34541;-83
2024/01/08 02:53:04;;;;;;;;;;;;;;;0.11;66.05;98986.44;4328035;33;34310;-83
2024/01/08 02:55:39;;;;;;;;;;;;;;;0.13;66.46;98988.19;4332858;33;33033;-84
2024/01/08 02:58:08;;;;;;;;;;;;;;;0.16;66.14;99000.13;4336212;33;33629;-84
2024/01/08 03:00:36;;;;;;;;;;;;;;;-0.13;66.56;99002.16;4337464;33;34292;-83
2024/01/08 03:03:08;;;;;;;;;;;;;;;-0.22;67.24;99002.84;4339661;33;33797;-83
2024/01/08 03:05:36;;;;;;;;;;;;;;;0.30;66.12;99003.78;4339244;33;32940;-83
2024/01/08 03:08:08;;;;;;;;;;;;;;;0.52;64.95;99007.53;4337727;33;34803;-83
2024/01/08 03:10:43;;;;;;;;;;;;;;;0.17;66.39;99012.03;4340472;33;33844;-83
2024/01/08 03:13:11;;;;;;;;;;;;;;;0.04;67.84;99010.97;4331910;33;34400;-83
2024/01/08 03:15:40;;;;;;;;;;;;;;;-0.14;69.39;99011.50;4326706;33;34305;-84
2024/01/08 03:18:09;;;;;;;;;;;;;;;-0.25;69.86;99018.06;4326667;33;34743;-83
2024/01/08 03:20:38;;;;;;;;;;;;;;;-0.51;71.16;99023.53;4327631;33;34252;-83
2024/01/08 03:23:14;;;;;;;;;;;;;;;-0.59;71.49;99034.38;4339236;33;35156;-83
2024/01/08 03:25:47;;;;;;;;;;;;;;;-0.54;72.31;99043.84;4338600;33;33751;-83
2024/01/08 03:28:16;;;;;;;;;;;;;;;-0.56;72.02;99031.91;4339847;33;34374;-83
2024/01/08 03:30:50;;;;;;;;;;;;;;;-0.95;73.08;99045.50;4327321;33;33619;-84
2024/01/08 03:33:19;;;;;;;;;;;;;;;-0.79;72.85;99024.63;4326922;33;34446;-84
2024/01/08 03:35:47;;;;;;;;;;;;;;;-0.65;72.70;99032.59;4332361;33;33773;-84
2024/01/08 03:38:16;;;;;;;;;;;;;;;-0.65;71.94;99030.03;4327815;33;33711;-83
2024/01/08 03:40:49;;;;;;;;;;;;;;;-0.83;72.41;99042.38;4342988;33;33630;-84
2024/01/08 03:43:20;;;;;;;;;;;;;;;-0.79;72.49;99050.09;4344180;33;34826;-84
2024/01/08 03:45:49;;;;;;;;;;;;;;;-0.81;71.24;99056.84;4347340;33;34395;-83
2024/01/08 03:48:20;;;;;;;;;;;;;;;-0.75;70.80;99054.44;4327881;33;33053;-83
2024/01/08 03:50:54;;;;;;;;;;;;;;;-0.68;70.84;99056.31;4342275;33;34885;-84
2024/01/08 03:53:23;;;;;;;;;;;;;;;-0.93;71.53;99064.22;4344400;33;34836;-84
2024/01/08 03:55:57;;;;;;;;;;;;;;;-0.52;69.02;99066.81;4342044;33;33609;-84
2024/01/08 03:58:27;;;;;;;;;;;;;;;-0.89;69.72;99061.78;4346868;33;33902;-83
2024/01/08 04:00:56;;;;;;;;;;;;;;;-1.02;70.46;99059.75;4341530;33;33341;-84
2024/01/08 04:03:26;;;;;;;;;;;;;;;-1.15;71.15;99066.28;4342870;33;34433;-83
2024/01/08 04:05:58;;;;;;;;;;;;;;;-0.97;70.50;99064.97;4329710;33;32956;-84
2024/01/08 04:08:26;;;;;;;;;;;;;;;-1.03;70.53;99060.59;4335991;33;34129;-84
2024/01/08 04:10:56;;;;;;;;;;;;;;;-1.05;71.25;99064.78;4331946;33;34966;-84
2024/01/08 04:13:28;;;;;;;;;;;;;;;-1.13;70.96;99079.03;4330692;33;33928;-85
2024/01/08 04:16:03;;;;;;;;;;;;;;;-0.97;70.36;99070.06;4333728;33;33029;-84
2024/01/08 04:18:32;;;;;;;;;;;;;;;-0.88;69.93;99075.38;4332828;33;34001;-84
2024/01/08 04:21:02;;;;;;;;;;;;;;;-0.99;69.87;99080.22;4332182;33;34327;-85
2024/01/08 04:23:31;;;;;;;;;;;;;;;-1.14;69.69;99090.88;4338599;33;33935;-84
2024/01/08 04:26:00;;;;;;;;;;;;;;;-1.13;70.26;99079.91;4331086;33;34007;-84
2024/01/08 04:28:33;;;;;;;;;;;;;;;-1.11;70.56;99079.94;4334497;33;33651;-84
2024/01/08 04:31:03;;;;;;;;;;;;;;;-0.88;69.69;99086.41;4335040;33;33989;-84
2024/01/08 04:33:33;;;;;;;;;;;;;;;-0.89;69.34;99101.66;4334299;33;34303;-83
2024/01/08 04:36:06;;;;;;;;;;;;;;;-0.99;69.96;99092.97;4327906;33;33655;-84
2024/01/08 04:38:35;;;;;;;;;;;;;;;-1.07;69.57;99097.84;4337950;33;34457;-83
2024/01/08 04:41:09;;;;;;;;;;;;;;;-1.16;70.10;99102.75;4335973;33;35163;-84
2024/01/08 04:43:39;;;;;;;;;;;;;;;-1.00;69.19;99098.00;4342355;33;34648;-84
2024/01/08 04:46:08;;;;;;;;;;;;;;;-0.89;68.51;99109.31;4328583;33;33680;-84
2024/01/08 04:48:37;;;;;;;;;;;;;;;-0.79;68.49;99105.28;4325847;33;34306;-84
2024/01/08 04:51:13;;;;;;;;;;;;;;;-0.81;68.38;99112.88;4340400;33;33595;-84
2024/01/08 04:53:41;;;;;;;;;;;;;;;-0.79;67.71;99113.78;4336843;33;33809;-84
2024/01/08 04:56:19;;;;;;;;;;;;;;;-1.03;68.62;99116.59;4337790;33;33201;-84
2024/01/08 04:58:49;;;;;;;;;;;;;;;-1.01;68.51;99127.69;4336658;33;33212;-84
2024/01/08 05:01:22;;;;;;;;;;;;;;;-0.85;68.46;99126.34;4331496;33;34682;-84
2024/01/08 05:03:55;;;;;;;;;;;;;;;-0.69;68.03;99125.88;4335015;33;35382;-84
2024/01/08 05:06:25;;;;;;;;;;;;;;;-0.74;67.37;99119.84;4338638;33;33368;-84
2024/01/08 05:08:57;;;;;;;;;;;;;;;-0.98;68.37;99127.75;4339917;33;33320;-84
2024/01/08 05:11:26;;;;;;;;;;;;;;;-1.07;69.57;99118.19;4332513;33;35011;-85
2024/01/08 05:13:59;;;;;;;;;;;;;;;-0.95;68.53;99138.00;4328434;33;33572;-84
2024/01/08 05:16:27;;;;;;;;;;;;;;;-1.15;69.02;99129.03;4328897;33;34846;-84
2024/01/08 05:18:57;;;;;;;;;;;;;;;-1.44;70.32;99144.44;4331326;33;34687;-85
2024/01/08 05:21:27;;;;;;;;;;;;;;;-1.14;69.71;99135.84;4334230;33;33789;-85
2024/01/08 05:23:58;;;;;;;;;;;;;;;-1.20;69.40;99145.88;4326968;33;34386;-84
2024/01/08 05:26:29;;;;;;;;;;;;;;;-1.29;70.50;99142.28;4328450;33;33460;-85
2024/01/08 05:29:04;;;;;;;;;;;;;;;-1.08;68.48;99158.91;4340708;33;34977;-85
2024/01/08 05:31:34;;;;;;;;;;;;;;;-1.11;69.09;99162.25;4340046;33;33805;-84
2024/01/08 05:34:04;;;;;;;;;;;;;;;-1.45;69.88;99159.66;4326301;33;34086;-85
2024/01/08 05:36:33;;;;;;;;;;;;;;;-0.99;68.80;99173.53;4331487;33;33054;-85
2024/01/08 05:39:02;;;;;;;;;;;;;;;-0.76;68.51;99174.09;4332169;33;33737;-85
2024/01/08 05:41:34;;;;;;;;;;;;;;;-1.06;68.69;99175.09;4335532;33;34996;-85
2024/01/08 05:44:06;;;;;;;;;;;;;;;-0.94;68.96;99177.94;4330871;33;33951;-84
2024/01/08 05:46:36;;;;;;;;;;;;;;;-0.60;68.42;99178.75;4328604;33;33551;-85
2024/01/08 05:49:06;;;;;;;;;;;;;;;-0.70;67.37;99187.84;4326356;33;34103;-85
2024/01/08 05:51:37;;;;;;;;;;;;;;;-0.61;67.53;99188.88;4331188;33;34052;-85
2024/01/08 05:54:12;;;;;;;;;;;;;;;-0.81;67.62;99194.38;4334834;33;34221;-85
2024/01/08 05:56:41;;;;;;;;;;;;;;;-0.87;67.93;99196.75;4337589;33;32848;-85
2024/01/08 05:59:09;;;;;;;;;;;;;;;-1.01;67.93;99193.03;4333239;33;33838;-86
2024/01/08 06:01:42;;;;;;;;;;;;;;;-1.07;67.88;99186.94;4339181;33;33522;-85
2024/01/08 06:04:13;;;;;;;;;;;;;;;-0.96;66.65;99191.47;4346252;33;34349;-85
2024/01/08 06:06:41;;;;;;;;;;;;;;;-1.20;67.68;99194.25;4341738;33;33412;-85
2024/01/08 06:09:16;;;;;;;;;;;;;;;-1.13;66.62;99188.50;4340522;33;33219;-86
2024/01/08 06:11:44;;;;;;;;;;;;;;;-1.17;66.94;99199.41;4332591;33;34757;-85
2024/01/08 06:14:13;;;;;;;;;;;;;;;-1.05;67.08;99197.16;4325660;33;34464;-86
2024/01/08 06:16:44;;;;;;;;;;;;;;;-1.32;67.00;99198.19;4334850;33;33485;-86
2024/01/08 06:19:19;;;;;;;;;;;;;;;-1.17;66.84;99202.81;4338056;33;33563;-86
2024/01/08 06:21:47;;;;;;;;;;;;;;;-1.12;66.28;99197.84;4339917;33;33583;-86
2024/01/08 06:24:16;;;;;;;;;;;;;;;-1.04;66.02;99208.22;4340979;33;34243;-86
2024/01/08 06:26:45;;;;;;;;;;;;;;;-1.03;66.17;99222.69;4345453;33;33502;-85
2024/01/08 06:29:14;;;;;;;;;;;;;;;-0.98;65.54;99224.50;4342425;33;33594;-86
2024/01/08 06:31:49;;;;;;;;;;;;;;;-0.92;65.65;99222.13;4344359;33;34009;-86
2024/01/08 06:34:19;;;;;;;;;;;;;;;-0.97;65.69;99223.66;4339580;33;34917;-86
2024/01/08 06:36:48;;;;;;;;;;;;;;;-0.81;64.75;99235.12;4332139;33;32911;-86
2024/01/08 06:39:22;;;;;;;;;;;;;;;-0.88;65.47;99229.00;4336284;33;33670;-86
2024/01/08 06:41:51;;;;;;;;;;;;;;;-0.84;65.11;99244.38;4340744;33;33365;-87
2024/01/08 06:44:25;;;;;;;;;;;;;;;-1.01;65.96;99249.91;4330529;33;34832;-86
2024/01/08 06:46:55;;;;;;;;;;;;;;;-0.88;65.17;99251.91;4333046;33;32890;-86
2024/01/08 06:49:26;;;;;;;;;;;;;;;-0.76;64.78;99253.06;4329289;32;34388;-86
2024/01/08 06:51:54;;;;;;;;;;;;;;;-0.92;64.65;99255.22;4346386;33;33639;-86
2024/01/08 06:54:23;;;;;;;;;;;;;;;-0.87;64.71;99255.31;4343351;33;34159;-86
2024/01/08 06:56:52;;;;;;;;;;;;;;;-0.89;64.53;99260.41;4327012;33;33105;-86
2024/01/08 06:59:24;;;;;;;;;;;;;;;-0.96;65.11;99268.69;4340534;33;34423;-87
2024/01/08 07:01:59;;;;;;;;;;;;;;;-0.94;64.69;99261.09;4347526;33;35753;-86
2024/01/08 07:04:29;;;;;;;;;;;;;;;-0.80;64.84;99284.34;4335242;33;33901;-87
2024/01/08 07:06:57;;;;;;;;;;;;;;;-0.84;64.77;99277.50;4337873;33;34291;-86
2024/01/08 07:09:32;;;;;;;;;;;;;;;-0.77;65.01;99274.28;4334422;33;32701;-87
2024/01/08 07:12:01;;;;;;;;;;;;;;;-0.60;63.65;99287.41;4332894;33;34188;-88
2024/01/08 07:14:32;;;;;;;;;;;;;;;-0.74;64.52;99287.06;4344793;33;34364;-87
2024/01/08 07:17:02;;;;;;;;;;;;;;;-0.50;63.88;99290.22;4337232;32;32933;-87
2024/01/08 07:19:31;;;;;;;;;;;;;;;-0.34;63.41;99294.03;4338342;33;33795;-87
2024/01/08 07:22:00;;;;;;;;;;;;;;;-0.53;63.79;99300.34;4337068;33;34052;-87
2024/01/08 07:24:32;;;;;;;;;;;;;;;-0.42;63.09;99303.16;4341797;33;34828;-87
2024/01/08 07:27:01;;;;;;;;;;;;;;;-0.75;64.23;99313.34;4331948;33;33618;-88
2024/01/08 07:29:30;;;;;;;;;;;;;;;-0.54;63.84;99308.81;4335135;33;33129;-88
2024/01/08 07:32:06;;;;;;;;;;;;;;;-0.60;63.37;99310.34;4334605;33;34184;-88
2024/01/08 07:34:38;;;;;;;;;;;;;;;-0.53;62.65;99320.75;4332359;33;33949;-88
2024/01/08 07:37:07;;;;;;;;;;;;;;;-0.62;63.36;99315.41;4345329;33;33056;-87
2024/01/08 07:39:41;;;;;;;;;;;;;;;-0.54;62.84;99318.16;4340073;33;34864;-88
2024/01/08 07:42:11;;;;;;;;;;;;;;;-0.60;63.64;99323.06;4341508;33;33625;-87
2024/01/08 07:44:41;;;;;;;;;;;;;;;-0.35;62.85;99327.12;4339948;33;34800;-87
2024/01/08 07:47:10;;;;;;;;;;;;;;;-0.30;63.03;99328.94;4344931;33;33192;-87
2024/01/08 07:49:42;;;;;;;;;;;;;;;-0.37;62.91;99336.41;4345635;33;34045;-88
2024/01/08 07:52:10;;;;;;;;;;;;;;;-0.53;64.24;99348.78;4341490;33;33727;-87
2024/01/08 07:54:42;;;;;;;;;;;;;;;-0.32;63.85;99340.78;4331112;33;33946;-87
2024/01/08 07:57:13;;;;;;;;;;;;;;;-0.13;63.17;99347.19;4324642;33;33126;-88
2024/01/08 07:59:43;;;;;;;;;;;;;;;-0.03;62.75;99350.81;4338743;33;33625;-88
2024/01/08 08:02:15;;;;;;;;;;;;;;;0.15;62.56;99360.63;4344174;33;34528;-88
2024/01/08 08:04:44;;;;;;;;;;;;;;;0.25;62.01;99362.53;4341919;33;34194;-87
2024/01/08 08:07:13;;;;;;;;;;;;;;;0.35;62.53;99361.91;4339605;33;33427;-88
2024/01/08 08:09:42;;;;;;;;;;;;;;;0.58;61.47;99365.00;4342788;33;33517;-87
2024/01/08 08:12:14;;;;;;;;;;;;;;;0.71;60.70;99385.66;4346533;33;33766;-88
2024/01/08 08:14:47;;;;;;;;;;;;;;;0.58;60.88;99379.41;4342285;33;34040;-88
2024/01/08 08:17:18;;;;;;;;;;;;;;;0.51;61.44;99386.09;4328609;33;32681;-88
2024/01/08 08:19:47;;;;;;;;;;;;;;;0.43;61.10;99390.16;4341428;33;34762;-88
2024/01/08 08:22:20;;;;;;;;;;;;;;;0.63;60.45;99388.91;4346289;33;35089;-88
2024/01/08 08:24:52;;;;;;;;;;;;;;;0.58;60.88;99389.63;4341167;33;34349;-88
2024/01/08 08:27:22;;;;;;;;;;;;;;;0.64;60.05;99390.63;4341106;33;34054;-88
2024/01/08 08:29:56;;;;;;;;;;;;;;;0.36;60.76;99395.94;4341313;33;34540;-88
2024/01/08 08:32:26;;;;;;;;;;;;;;;0.74;60.02;99411.25;4342308;33;34621;-88
2024/01/08 08:34:57;;;;;;;;;;;;;;;0.50;60.46;99402.22;4346517;33;33754;-88
2024/01/08 08:37:26;;;;;;;;;;;;;;;0.33;60.95;99412.03;4340877;33;33660;-88
2024/01/08 08:40:21;;;;;;;;;;;;;;;0.16;61.06;99410.78;4341613;33;33403;-88
2024/01/08 08:42:50;;;;;;;;;;;;;;;0.01;61.67;99416.38;4327477;33;34699;-88
2024/01/08 08:45:21;;;;;;;;;;;;;;;-0.10;61.87;99422.91;4326500;33;33600;-88
2024/01/08 08:47:51;;;;;;;;;;;;;;;0.07;61.99;99423.31;4331658;33;34248;-88
2024/01/08 08:50:21;;;;;;;;;;;;;;;0.13;61.62;99420.94;4337135;33;34439;-88
2024/01/08 08:52:49;;;;;;;;;;;;;;;0.26;61.58;99428.03;4346014;33;34661;-87
2024/01/08 08:55:18;;;;;;;;;;;;;;;0.06;61.23;99425.00;4340962;33;34944;-89
2024/01/08 08:57:47;;;;;;;;;;;;;;;0.26;61.36;99428.03;4346280;33;34790;-88
2024/01/08 09:00:16;;;;;;;;;;;;;;;0.35;61.37;99432.50;4340989;33;33547;-88
2024/01/08 09:02:54;;;;;;;;;;;;;;;0.34;60.14;99429.09;4345383;33;33956;-88
2024/01/08 09:05:28;;;;;;;;;;;;;;;0.15;61.22;99437.13;4339829;33;33550;-88
2024/01/08 09:08:08;;;;;;;;;;;;;;;0.24;61.24;99432.22;4338314;33;33908;-88
2024/01/08 09:10:37;;;;;;;;;;;;;;;0.41;60.83;99436.06;4337045;33;34364;-88
2024/01/08 09:13:05;;;;;;;;;;;;;;;0.18;60.85;99447.41;4330256;33;34660;-88
2024/01/08 09:15:37;;;;;;;;;;;;;;;0.21;60.92;99444.91;4338625;33;34093;-88
2024/01/08 09:18:15;;;;;;;;;;;;;;;0.18;61.65;99438.06;4333901;33;32905;-88
2024/01/08 09:20:43;;;;;;;;;;;;;;;0.11;61.37;99448.09;4326557;33;33066;-88
2024/01/08 09:23:13;;;;;;;;;;;;;;;0.03;61.64;99452.13;4340001;33;34452;-88
2024/01/08 09:25:42;;;;;;;;;;;;;;;-0.10;61.93;99443.28;4321693;33;33958;-88
2024/01/08 09:28:10;;;;;;;;;;;;;;;-0.11;62.10;99446.69;4325127;33;33452;-88
2024/01/08 09:30:42;;;;;;;;;;;;;;;-0.06;62.25;99447.66;4344207;33;33817;-88
2024/01/08 09:33:14;;;;;;;;;;;;;;;-0.06;62.25;99460.41;4339778;33;34168;-89
2024/01/08 09:35:43;;;;;;;;;;;;;;;0.25;61.59;99466.28;4336268;33;34239;-88
2024/01/08 09:38:12;;;;;;;;;;;;;;;0.69;60.04;99464.78;4331749;33;33962;-88
2024/01/08 09:40:42;;;;;;;;;;;;;;;0.68;59.65;99457.94;4334769;33;34210;-88
2024/01/08 09:43:12;;;;;;;;;;;;;;;0.57;60.01;99452.59;4333750;33;33806;-88
2024/01/08 09:45:49;;;;;;;;;;;;;;;0.46;60.55;99455.72;4333914;33;34641;-87
2024/01/08 09:48:23;;;;;;;;;;;;;;;0.46;60.33;99443.84;4329957;33;33481;-88
2024/01/08 09:50:51;;;;;;;;;;;;;;;0.42;60.39;99454.78;4333318;33;35299;-88
2024/01/08 09:53:21;;;;;;;;;;;;;;;0.59;60.81;99450.94;4339834;33;34238;-88
2024/01/08 09:55:50;;;;;;;;;;;;;;;0.41;60.39;99440.28;4334284;33;34429;-88
2024/01/08 09:58:21;;;;;;;;;;;;;;;0.02;61.63;99441.06;4344347;33;34159;-88
2024/01/08 10:00:50;;;;;;;;;;;;;;;0.33;61.40;99445.22;4335415;33;34450;-88
2024/01/08 10:03:26;;;;;;;;;;;;;;;0.45;60.99;99444.66;4334420;33;33865;-88
2024/01/08 10:05:56;;;;;;;;;;;;;;;0.60;59.95;99452.69;4329276;33;33743;-88
2024/01/08 10:08:26;;;;;;;;;;;;;;;0.61;60.26;99450.97;4334112;33;32501;-88
2024/01/08 10:10:57;;;;;;;;;;;;;;;0.59;60.55;99444.97;4329986;33;33207;-88
2024/01/08 10:13:27;;;;;;;;;;;;;;;0.83;59.48;99450.63;4325420;33;34458;-88
2024/01/08 10:15:56;;;;;;;;;;;;;;;0.78;59.08;99442.00;4339915;33;34956;-88
2024/01/08 10:18:27;;;;;;;;;;;;;;;0.59;59.57;99447.53;4332881;33;34076;-88
2024/01/08 10:21:13;;;;;;;;;;;;;;;0.66;59.79;99451.94;4342960;33;32767;-89
2024/01/08 10:23:41;;;;;;;;;;;;;;;0.52;60.10;99445.66;4337023;33;35177;-88
2024/01/08 10:26:11;;;;;;;;;;;;;;;0.56;60.32;99447.47;4331742;33;34647;-88
2024/01/08 10:28:40;;;;;;;;;;;;;;;0.77;59.68;99447.91;4331177;33;32489;-88
2024/01/08 10:31:10;;;;;;;;;;;;;;;0.53;59.61;99447.38;4343187;33;34014;-87
2024/01/08 10:33:40;;;;;;;;;;;;;;;0.63;60.08;99447.63;4335877;33;33741;-88
2024/01/08 10:36:12;;;;;;;;;;;;;;;0.85;59.19;99435.34;4332103;33;35261;-87
2024/01/08 10:38:41;;;;;;;;;;;;;;;0.83;59.59;99442.09;4333220;33;33834;-87
2024/01/08 10:41:11;;;;;;;;;;;;;;;0.87;59.29;99443.03;4334225;33;34198;-87
2024/01/08 10:43:44;;;;;;;;;;;;;;;1.01;59.11;99442.47;4334476;33;34897;-87
2024/01/08 10:46:13;;;;;;;;;;;;;;;1.04;58.92;99446.81;4334251;32;34595;-87
2024/01/08 10:48:42;;;;;;;;;;;;;;;1.21;58.43;99444.63;4329626;33;33803;-87
2024/01/08 10:51:13;;;;;;;;;;;;;;;1.15;59.09;99442.78;4332670;32;33929;-87
2024/01/08 10:53:43;;;;;;;;;;;;;;;1.25;59.37;99446.38;4329247;33;34901;-87
2024/01/08 10:56:12;;;;;;;;;;;;;;;1.48;58.15;99450.25;4340786;33;33649;-87
2024/01/08 10:58:50;;;;;;;;;;;;;;;1.61;57.93;99459.03;4339367;33;33589;-87
2024/01/08 11:01:18;;;;;;;;;;;;;;;1.80;57.75;99447.44;4341352;33;34168;-87
2024/01/08 11:03:50;;;;;;;;;;;;;;;1.61;58.23;99446.22;4330421;33;33327;-87
2024/01/08 11:06:25;;;;;;;;;;;;;;;1.76;57.37;99452.47;4334472;33;33925;-87
2024/01/08 11:09:04;;;;;;;;;;;;;;;1.68;57.56;99444.66;4330752;33;33151;-87
2024/01/08 11:11:33;;;;;;;;;;;;;;;1.61;57.69;99466.69;4338733;33;33643;-87
2024/01/08 11:14:07;;;;;;;;;;;;;;;1.47;58.45;99460.44;4333123;33;35006;-87
2024/01/08 11:16:36;;;;;;;;;;;;;;;1.64;57.61;99464.22;4335230;32;33744;-86
2024/01/08 11:19:19;;;;;;;;;;;;;;;1.59;57.46;99459.81;4336732;33;34611;-87
2024/01/08 11:21:50;;;;;;;;;;;;;;;1.68;57.16;99463.41;4338630;33;33565;-86
2024/01/08 11:24:19;;;;;;;;;;;;;;;1.52;57.44;99460.53;4334914;33;33878;-87
2024/01/08 11:26:52;;;;;;;;;;;;;;;1.14;58.89;99451.28;4332876;33;33669;-86
2024/01/08 11:29:20;;;;;;;;;;;;;;;1.58;57.76;99458.13;4324558;33;33222;-86
2024/01/08 11:32:20;;;;;;;;;;;;;;;1.62;57.69;99455.66;4334735;33;33964;-86
2024/01/08 11:34:57;;;;;;;;;;;;;;;1.74;57.87;99461.81;4336611;33;35091;-86
2024/01/08 11:37:33;;;;;;;;;;;;;;;1.81;57.30;99463.62;4332656;33;34724;-86
2024/01/08 11:40:15;;;;;;;;;;;;;;;2.00;57.43;99460.56;4335539;33;33011;-85
2024/01/08 11:42:50;;;;;;;;;;;;;;;1.66;57.25;99475.31;4331981;33;33481;-86
2024/01/08 11:45:20;;;;;;;;;;;;;;;1.79;57.69;99463.62;4331810;33;33828;-86
2024/01/08 11:47:51;;;;;;;;;;;;;;;1.73;57.77;99462.66;4338162;33;34096;-86
2024/01/08 11:50:19;;;;;;;;;;;;;;;1.69;57.52;99477.06;4332206;33;33215;-86
2024/01/08 11:52:56;;;;;;;;;;;;;;;1.60;58.22;99467.53;4329309;33;34221;-85
2024/01/08 11:55:29;;;;;;;;;;;;;;;1.72;58.11;99474.59;4341115;33;34504;-86
2024/01/08 11:57:58;;;;;;;;;;;;;;;1.41;58.54;99462.91;4335033;33;33828;-85
2024/01/08 12:00:29;;;;;;;;;;;;;;;1.69;58.11;99465.16;4345981;33;33279;-85
2024/01/08 12:03:01;;;;;;;;;;;;;;;1.69;58.07;99475.37;4343841;33;33098;-85
2024/01/08 12:05:30;;;;;;;;;;;;;;;1.54;58.08;99467.41;4330865;33;33957;-86
2024/01/08 12:07:58;;;;;;;;;;;;;;;1.66;58.41;99479.56;4332238;33;34918;-85
2024/01/08 12:10:33;;;;;;;;;;;;;;;1.94;57.90;99475.84;4337733;33;33812;-85
2024/01/08 12:13:03;;;;;;;;;;;;;;;1.67;57.18;99477.06;4332348;33;33626;-85
2024/01/08 12:15:35;;;;;;;;;;;;;;;1.85;57.59;99475.66;4335089;33;34933;-85
2024/01/08 12:18:04;;;;;;;;;;;;;;;2.07;56.45;99479.47;4329781;33;34310;-85
2024/01/08 12:20:36;;;;;;;;;;;;;;;1.51;57.45;99485.25;4328117;33;33384;-85
2024/01/08 12:23:04;;;;;;;;;;;;;;;1.74;57.12;99493.38;4337615;33;33733;-85
2024/01/08 12:25:39;;;;;;;;;;;;;;;1.55;57.59;99487.03;4329486;33;34103;-85
2024/01/08 12:28:12;;;;;;;;;;;;;;;1.23;58.45;99494.03;4332633;33;35101;-85
2024/01/08 12:30:41;;;;;;;;;;;;;;;1.58;57.68;99492.22;4339322;33;33687;-85
2024/01/08 12:33:11;;;;;;;;;;;;;;;1.68;57.36;99488.13;4332393;33;34245;-85
2024/01/08 12:35:44;;;;;;;;;;;;;;;1.55;57.37;99492.16;4331007;33;34974;-85
2024/01/08 12:38:13;;;;;;;;;;;;;;;1.39;58.02;99498.63;4334632;33;34232;-85
2024/01/08 12:40:45;;;;;;;;;;;;;;;1.50;57.61;99498.87;4333352;33;33994;-85
2024/01/08 12:43:18;;;;;;;;;;;;;;;1.43;58.38;99492.78;4333626;33;33838;-85
2024/01/08 12:45:47;;;;;;;;;;;;;;;1.55;57.61;99494.72;4341606;33;34182;-85
2024/01/08 12:48:17;;;;;;;;;;;;;;;1.54;57.75;99492.97;4333515;33;34664;-86
2024/01/08 12:50:53;;;;;;;;;;;;;;;1.40;57.97;99502.94;4336024;33;33524;-85
2024/01/08 12:53:25;;;;;;;;;;;;;;;1.32;58.38;99501.03;4339873;33;34838;-86
2024/01/08 12:55:54;;;;;;;;;;;;;;;1.42;58.43;99505.50;4333041;33;34825;-85
2024/01/08 12:58:24;;;;;;;;;;;;;;;1.55;57.90;99502.38;4331469;33;34336;-86
2024/01/08 13:00:55;;;;;;;;;;;;;;;1.46;58.01;99507.31;4329125;33;33459;-85
2024/01/08 13:03:24;;;;;;;;;;;;;;;1.47;58.13;99502.22;4343257;33;33674;-85
2024/01/08 13:05:56;;;;;;;;;;;;;;;1.69;57.47;99512.84;4340609;33;34179;-85
2024/01/08 13:08:30;;;;;;;;;;;;;;;1.56;57.62;99514.31;4346101;33;35134;-86
2024/01/08 13:10:59;;;;;;;;;;;;;;;1.33;58.30;99515.53;4340521;33;33152;-86
2024/01/08 13:13:32;;;;;;;;;;;;;;;1.36;58.75;99519.03;4336930;33;33776;-85